sensor_id;sensor_type;location;lat;lon;timestamp;P1;durP1;ratioP1;P2;durP2;ratioP2
751;SDS011;360;48.764;9.164;2022-09-04T00:00:01;3.27;;;2.10;;
751;SDS011;360;48.764;9.164;2022-09-04T00:02:36;4.73;;;2.20;;
751;SDS011;360;48.764;9.164;2022-09-04T00:05:11;3.40;;;2.20;;
751;SDS011;360;48.764;9.164;2022-09-04T00:07:50;5.43;;;2.30;;
751;SDS011;360;48.764;9.164;2022-09-04T00:10:22;3.90;;;2.10;;
751;SDS011;360;48.764;9.164;2022-09-04T00:12:56;4.30;;;2.50;;
751;SDS011;360;48.764;9.164;2022-09-04T00:15:28;3.57;;;2.30;;
751;SDS011;360;48.764;9.164;2022-09-04T00:18:02;3.97;;;2.40;;
751;SDS011;360;48.764;9.164;2022-09-04T00:20:33;5.27;;;2.43;;
751;SDS011;360;48.764;9.164;2022-09-04T00:23:04;2.83;;;2.20;;
751;SDS011;360;48.764;9.164;2022-09-04T00:25:34;3.33;;;2.27;;
751;SDS011;360;48.764;9.164;2022-09-04T00:28:07;3.23;;;2.10;;
751;SDS011;360;48.764;9.164;2022-09-04T00:30:39;3.97;;;3.13;;
751;SDS011;360;48.764;9.164;2022-09-04T00:33:15;3.77;;;3.07;;
751;SDS011;360;48.764;9.164;2022-09-04T00:35:45;3.23;;;2.00;;
751;SDS011;360;48.764;9.164;2022-09-04T00:38:15;4.97;;;2.97;;
751;SDS011;360;48.764;9.164;2022-09-04T00:40:45;3.60;;;2.50;;
751;SDS011;360;48.764;9.164;2022-09-04T00:43:20;4.40;;;2.47;;
751;SDS011;360;48.764;9.164;2022-09-04T00:45:58;3.80;;;2.50;;
751;SDS011;360;48.764;9.164;2022-09-04T00:48:34;3.50;;;2.70;;
751;SDS011;360;48.764;9.164;2022-09-04T00:51:20;4.03;;;2.50;;
751;SDS011;360;48.764;9.164;2022-09-04T00:56:40;2.13;;;1.73;;
751;SDS011;360;48.764;9.164;2022-09-04T00:59:17;2.10;;;1.90;;
751;SDS011;360;48.764;9.164;2022-09-04T01:01:48;3.50;;;2.20;;
751;SDS011;360;48.764;9.164;2022-09-04T01:04:29;3.00;;;2.53;;
751;SDS011;360;48.764;9.164;2022-09-04T01:07:05;3.30;;;3.00;;
751;SDS011;360;48.764;9.164;2022-09-04T01:09:47;2.60;;;2.23;;
751;SDS011;360;48.764;9.164;2022-09-04T01:12:20;6.07;;;2.57;;
751;SDS011;360;48.764;9.164;2022-09-04T01:14:52;3.83;;;2.60;;
751;SDS011;360;48.764;9.164;2022-09-04T01:17:23;4.10;;;2.60;;
751;SDS011;360;48.764;9.164;2022-09-04T01:19:53;4.33;;;2.60;;
751;SDS011;360;48.764;9.164;2022-09-04T01:22:27;3.20;;;2.40;;
751;SDS011;360;48.764;9.164;2022-09-04T01:25:03;3.97;;;2.47;;
751;SDS011;360;48.764;9.164;2022-09-04T01:27:39;3.27;;;2.20;;
751;SDS011;360;48.764;9.164;2022-09-04T01:30:10;3.70;;;2.60;;
751;SDS011;360;48.764;9.164;2022-09-04T01:32:41;4.37;;;2.80;;
751;SDS011;360;48.764;9.164;2022-09-04T01:35:13;5.50;;;2.90;;
751;SDS011;360;48.764;9.164;2022-09-04T01:37:43;4.63;;;2.47;;
751;SDS011;360;48.764;9.164;2022-09-04T01:40:26;2.80;;;2.47;;
751;SDS011;360;48.764;9.164;2022-09-04T01:42:58;3.10;;;2.27;;
751;SDS011;360;48.764;9.164;2022-09-04T01:45:30;4.90;;;2.53;;
751;SDS011;360;48.764;9.164;2022-09-04T01:48:00;3.87;;;2.70;;
751;SDS011;360;48.764;9.164;2022-09-04T01:50:28;3.57;;;2.57;;
751;SDS011;360;48.764;9.164;2022-09-04T01:52:57;5.50;;;3.20;;
751;SDS011;360;48.764;9.164;2022-09-04T01:55:30;2.97;;;2.07;;
751;SDS011;360;48.764;9.164;2022-09-04T01:58:05;3.60;;;2.43;;
751;SDS011;360;48.764;9.164;2022-09-04T02:00:36;2.97;;;2.23;;
751;SDS011;360;48.764;9.164;2022-09-04T02:03:09;5.43;;;2.63;;
751;SDS011;360;48.764;9.164;2022-09-04T02:05:41;4.37;;;2.53;;
751;SDS011;360;48.764;9.164;2022-09-04T02:08:20;3.33;;;2.73;;
751;SDS011;360;48.764;9.164;2022-09-04T02:10:49;3.63;;;2.00;;
751;SDS011;360;48.764;9.164;2022-09-04T02:13:20;3.07;;;1.80;;
751;SDS011;360;48.764;9.164;2022-09-04T02:15:52;4.03;;;2.40;;
751;SDS011;360;48.764;9.164;2022-09-04T02:18:24;4.93;;;2.50;;
751;SDS011;360;48.764;9.164;2022-09-04T02:20:55;2.87;;;2.07;;
751;SDS011;360;48.764;9.164;2022-09-04T02:23:28;3.30;;;2.23;;
751;SDS011;360;48.764;9.164;2022-09-04T02:25:57;2.57;;;2.20;;
751;SDS011;360;48.764;9.164;2022-09-04T02:28:29;2.23;;;1.77;;
751;SDS011;360;48.764;9.164;2022-09-04T02:31:00;3.07;;;2.17;;
751;SDS011;360;48.764;9.164;2022-09-04T02:33:32;2.77;;;2.07;;
751;SDS011;360;48.764;9.164;2022-09-04T02:36:04;3.60;;;1.93;;
751;SDS011;360;48.764;9.164;2022-09-04T02:38:36;3.73;;;2.33;;
751;SDS011;360;48.764;9.164;2022-09-04T02:41:07;3.37;;;2.33;;
751;SDS011;360;48.764;9.164;2022-09-04T02:43:43;3.53;;;2.00;;
751;SDS011;360;48.764;9.164;2022-09-04T02:46:13;2.80;;;1.87;;
751;SDS011;360;48.764;9.164;2022-09-04T02:48:52;3.50;;;2.10;;
751;SDS011;360;48.764;9.164;2022-09-04T02:51:23;3.60;;;1.70;;
751;SDS011;360;48.764;9.164;2022-09-04T02:53:58;3.00;;;2.33;;
751;SDS011;360;48.764;9.164;2022-09-04T02:56:30;2.30;;;2.00;;
751;SDS011;360;48.764;9.164;2022-09-04T02:59:09;2.80;;;2.00;;
751;SDS011;360;48.764;9.164;2022-09-04T03:01:42;3.50;;;2.10;;
751;SDS011;360;48.764;9.164;2022-09-04T03:04:12;2.80;;;1.87;;
751;SDS011;360;48.764;9.164;2022-09-04T03:06:43;3.60;;;2.03;;
751;SDS011;360;48.764;9.164;2022-09-04T03:09:14;2.30;;;1.90;;
751;SDS011;360;48.764;9.164;2022-09-04T03:11:43;3.40;;;1.97;;
751;SDS011;360;48.764;9.164;2022-09-04T03:14:14;2.60;;;1.97;;
751;SDS011;360;48.764;9.164;2022-09-04T03:16:44;3.30;;;1.93;;
751;SDS011;360;48.764;9.164;2022-09-04T03:19:14;4.93;;;2.60;;
751;SDS011;360;48.764;9.164;2022-09-04T03:21:45;1.83;;;1.43;;
751;SDS011;360;48.764;9.164;2022-09-04T03:24:16;3.77;;;2.40;;
751;SDS011;360;48.764;9.164;2022-09-04T03:26:47;4.63;;;2.17;;
751;SDS011;360;48.764;9.164;2022-09-04T03:29:19;2.83;;;1.90;;
751;SDS011;360;48.764;9.164;2022-09-04T03:31:50;2.03;;;1.73;;
751;SDS011;360;48.764;9.164;2022-09-04T03:34:29;3.20;;;2.23;;
751;SDS011;360;48.764;9.164;2022-09-04T03:37:08;2.93;;;1.93;;
751;SDS011;360;48.764;9.164;2022-09-04T03:39:42;4.10;;;2.10;;
751;SDS011;360;48.764;9.164;2022-09-04T03:42:13;3.60;;;1.90;;
751;SDS011;360;48.764;9.164;2022-09-04T03:44:50;3.93;;;1.93;;
751;SDS011;360;48.764;9.164;2022-09-04T03:47:22;3.97;;;1.93;;
751;SDS011;360;48.764;9.164;2022-09-04T03:49:58;1.63;;;1.53;;
751;SDS011;360;48.764;9.164;2022-09-04T03:52:29;2.57;;;1.97;;
751;SDS011;360;48.764;9.164;2022-09-04T03:57:50;2.27;;;1.50;;
751;SDS011;360;48.764;9.164;2022-09-04T04:00:22;2.77;;;1.83;;
751;SDS011;360;48.764;9.164;2022-09-04T04:03:00;2.20;;;2.00;;
751;SDS011;360;48.764;9.164;2022-09-04T04:05:34;2.73;;;1.80;;
751;SDS011;360;48.764;9.164;2022-09-04T04:08:08;2.23;;;1.50;;
751;SDS011;360;48.764;9.164;2022-09-04T04:10:42;2.00;;;1.73;;
751;SDS011;360;48.764;9.164;2022-09-04T04:13:18;2.77;;;2.07;;
751;SDS011;360;48.764;9.164;2022-09-04T04:15:53;2.30;;;1.80;;
751;SDS011;360;48.764;9.164;2022-09-04T04:18:30;2.80;;;1.80;;
751;SDS011;360;48.764;9.164;2022-09-04T04:21:00;4.03;;;2.50;;
751;SDS011;360;48.764;9.164;2022-09-04T04:23:40;2.90;;;2.10;;
751;SDS011;360;48.764;9.164;2022-09-04T04:26:08;2.60;;;1.93;;
751;SDS011;360;48.764;9.164;2022-09-04T04:28:41;2.37;;;1.63;;
751;SDS011;360;48.764;9.164;2022-09-04T04:31:26;2.17;;;1.50;;
751;SDS011;360;48.764;9.164;2022-09-04T04:33:58;1.83;;;1.50;;
751;SDS011;360;48.764;9.164;2022-09-04T04:36:30;2.07;;;1.87;;
751;SDS011;360;48.764;9.164;2022-09-04T04:39:04;2.40;;;1.80;;
751;SDS011;360;48.764;9.164;2022-09-04T04:41:39;3.53;;;2.10;;
751;SDS011;360;48.764;9.164;2022-09-04T04:44:22;3.67;;;1.80;;
751;SDS011;360;48.764;9.164;2022-09-04T04:47:14;2.80;;;2.00;;
751;SDS011;360;48.764;9.164;2022-09-04T04:49:53;3.17;;;1.97;;
751;SDS011;360;48.764;9.164;2022-09-04T04:52:25;3.03;;;2.17;;
751;SDS011;360;48.764;9.164;2022-09-04T04:54:59;2.70;;;2.03;;
751;SDS011;360;48.764;9.164;2022-09-04T04:57:31;3.13;;;2.00;;
751;SDS011;360;48.764;9.164;2022-09-04T05:00:03;2.17;;;1.70;;
751;SDS011;360;48.764;9.164;2022-09-04T05:02:34;2.20;;;1.77;;
751;SDS011;360;48.764;9.164;2022-09-04T05:05:03;2.83;;;1.87;;
751;SDS011;360;48.764;9.164;2022-09-04T05:07:39;2.27;;;1.70;;
751;SDS011;360;48.764;9.164;2022-09-04T05:10:08;3.47;;;2.20;;
751;SDS011;360;48.764;9.164;2022-09-04T05:12:49;3.83;;;2.30;;
751;SDS011;360;48.764;9.164;2022-09-04T05:15:18;2.70;;;1.80;;
751;SDS011;360;48.764;9.164;2022-09-04T05:17:49;4.73;;;1.70;;
751;SDS011;360;48.764;9.164;2022-09-04T05:20:19;3.00;;;2.07;;
751;SDS011;360;48.764;9.164;2022-09-04T05:22:51;2.40;;;1.90;;
751;SDS011;360;48.764;9.164;2022-09-04T05:25:22;2.40;;;2.03;;
751;SDS011;360;48.764;9.164;2022-09-04T05:27:55;3.03;;;2.00;;
751;SDS011;360;48.764;9.164;2022-09-04T05:30:29;2.60;;;1.93;;
751;SDS011;360;48.764;9.164;2022-09-04T05:33:03;3.10;;;1.93;;
751;SDS011;360;48.764;9.164;2022-09-04T05:35:33;3.27;;;2.50;;
751;SDS011;360;48.764;9.164;2022-09-04T05:38:04;3.07;;;2.33;;
751;SDS011;360;48.764;9.164;2022-09-04T05:40:37;2.33;;;1.97;;
751;SDS011;360;48.764;9.164;2022-09-04T05:43:13;3.40;;;1.80;;
751;SDS011;360;48.764;9.164;2022-09-04T05:45:47;2.13;;;1.77;;
751;SDS011;360;48.764;9.164;2022-09-04T05:48:18;2.00;;;1.80;;
751;SDS011;360;48.764;9.164;2022-09-04T05:50:49;2.63;;;2.10;;
751;SDS011;360;48.764;9.164;2022-09-04T05:53:25;4.40;;;2.30;;
751;SDS011;360;48.764;9.164;2022-09-04T05:55:58;2.67;;;2.23;;
751;SDS011;360;48.764;9.164;2022-09-04T05:58:54;3.80;;;2.43;;
751;SDS011;360;48.764;9.164;2022-09-04T06:01:36;2.20;;;1.70;;
751;SDS011;360;48.764;9.164;2022-09-04T06:04:15;3.00;;;2.43;;
751;SDS011;360;48.764;9.164;2022-09-04T06:06:52;2.90;;;2.27;;
751;SDS011;360;48.764;9.164;2022-09-04T06:09:34;4.50;;;2.57;;
751;SDS011;360;48.764;9.164;2022-09-04T06:12:12;2.93;;;2.63;;
751;SDS011;360;48.764;9.164;2022-09-04T06:14:45;3.00;;;1.93;;
751;SDS011;360;48.764;9.164;2022-09-04T06:17:25;2.63;;;2.40;;
751;SDS011;360;48.764;9.164;2022-09-04T06:20:12;4.70;;;2.33;;
751;SDS011;360;48.764;9.164;2022-09-04T06:22:51;2.47;;;1.70;;
751;SDS011;360;48.764;9.164;2022-09-04T06:25:29;4.40;;;2.27;;
751;SDS011;360;48.764;9.164;2022-09-04T06:28:02;2.53;;;1.77;;
751;SDS011;360;48.764;9.164;2022-09-04T06:30:34;3.00;;;2.47;;
751;SDS011;360;48.764;9.164;2022-09-04T06:33:09;3.70;;;2.30;;
751;SDS011;360;48.764;9.164;2022-09-04T06:35:48;3.00;;;2.10;;
751;SDS011;360;48.764;9.164;2022-09-04T06:38:22;2.20;;;2.00;;
751;SDS011;360;48.764;9.164;2022-09-04T06:40:56;7.40;;;2.60;;
751;SDS011;360;48.764;9.164;2022-09-04T06:43:29;3.50;;;2.47;;
751;SDS011;360;48.764;9.164;2022-09-04T06:46:00;2.80;;;2.03;;
751;SDS011;360;48.764;9.164;2022-09-04T06:48:36;2.93;;;2.33;;
751;SDS011;360;48.764;9.164;2022-09-04T06:51:10;7.90;;;2.50;;
751;SDS011;360;48.764;9.164;2022-09-04T06:53:45;2.90;;;2.23;;
751;SDS011;360;48.764;9.164;2022-09-04T06:56:24;3.60;;;2.23;;
751;SDS011;360;48.764;9.164;2022-09-04T06:59:00;3.23;;;2.30;;
751;SDS011;360;48.764;9.164;2022-09-04T07:01:36;2.73;;;2.07;;
751;SDS011;360;48.764;9.164;2022-09-04T07:04:08;4.00;;;3.17;;
751;SDS011;360;48.764;9.164;2022-09-04T07:06:46;10.03;;;2.90;;
751;SDS011;360;48.764;9.164;2022-09-04T07:09:15;2.23;;;2.03;;
751;SDS011;360;48.764;9.164;2022-09-04T07:11:49;3.47;;;2.40;;
751;SDS011;360;48.764;9.164;2022-09-04T07:17:07;2.30;;;1.53;;
751;SDS011;360;48.764;9.164;2022-09-04T07:19:59;2.77;;;1.97;;
751;SDS011;360;48.764;9.164;2022-09-04T07:25:14;2.27;;;1.90;;
751;SDS011;360;48.764;9.164;2022-09-04T07:27:51;2.47;;;1.90;;
751;SDS011;360;48.764;9.164;2022-09-04T07:30:20;2.60;;;1.97;;
751;SDS011;360;48.764;9.164;2022-09-04T07:32:51;3.10;;;2.00;;
751;SDS011;360;48.764;9.164;2022-09-04T07:35:20;2.80;;;2.20;;
751;SDS011;360;48.764;9.164;2022-09-04T07:37:51;2.37;;;1.77;;
751;SDS011;360;48.764;9.164;2022-09-04T07:40:24;2.57;;;2.00;;
751;SDS011;360;48.764;9.164;2022-09-04T07:42:52;1.97;;;1.63;;
751;SDS011;360;48.764;9.164;2022-09-04T07:45:25;3.07;;;2.43;;
751;SDS011;360;48.764;9.164;2022-09-04T07:47:58;1.87;;;1.50;;
751;SDS011;360;48.764;9.164;2022-09-04T07:50:31;2.07;;;1.40;;
751;SDS011;360;48.764;9.164;2022-09-04T07:53:06;2.60;;;1.47;;
751;SDS011;360;48.764;9.164;2022-09-04T07:55:41;1.87;;;1.40;;
751;SDS011;360;48.764;9.164;2022-09-04T07:58:16;2.07;;;1.80;;
751;SDS011;360;48.764;9.164;2022-09-04T08:00:48;1.90;;;1.60;;
751;SDS011;360;48.764;9.164;2022-09-04T08:03:24;4.20;;;2.20;;
751;SDS011;360;48.764;9.164;2022-09-04T08:05:56;1.70;;;1.50;;
751;SDS011;360;48.764;9.164;2022-09-04T08:14:53;1.70;;;1.40;;
751;SDS011;360;48.764;9.164;2022-09-04T08:20:16;2.00;;;1.80;;
751;SDS011;360;48.764;9.164;2022-09-04T08:22:53;2.70;;;1.70;;
751;SDS011;360;48.764;9.164;2022-09-04T08:25:26;2.43;;;1.90;;
751;SDS011;360;48.764;9.164;2022-09-04T08:28:00;1.43;;;1.33;;
751;SDS011;360;48.764;9.164;2022-09-04T08:30:45;2.00;;;1.50;;
751;SDS011;360;48.764;9.164;2022-09-04T08:33:25;2.13;;;1.90;;
751;SDS011;360;48.764;9.164;2022-09-04T08:35:56;1.87;;;1.50;;
751;SDS011;360;48.764;9.164;2022-09-04T08:38:31;1.83;;;1.10;;
751;SDS011;360;48.764;9.164;2022-09-04T08:41:16;2.70;;;1.70;;
751;SDS011;360;48.764;9.164;2022-09-04T08:44:00;2.03;;;1.77;;
751;SDS011;360;48.764;9.164;2022-09-04T08:46:43;2.07;;;1.60;;
751;SDS011;360;48.764;9.164;2022-09-04T08:52:09;2.50;;;1.80;;
751;SDS011;360;48.764;9.164;2022-09-04T08:55:05;1.50;;;1.23;;
751;SDS011;360;48.764;9.164;2022-09-04T08:57:45;1.90;;;1.40;;
751;SDS011;360;48.764;9.164;2022-09-04T09:00:19;1.47;;;1.30;;
751;SDS011;360;48.764;9.164;2022-09-04T09:03:09;1.20;;;1.00;;
751;SDS011;360;48.764;9.164;2022-09-04T09:08:37;2.37;;;1.63;;
751;SDS011;360;48.764;9.164;2022-09-04T09:11:18;1.70;;;1.53;;
751;SDS011;360;48.764;9.164;2022-09-04T09:14:07;2.03;;;1.30;;
751;SDS011;360;48.764;9.164;2022-09-04T09:16:41;3.07;;;1.60;;
751;SDS011;360;48.764;9.164;2022-09-04T09:19:13;1.80;;;1.40;;
751;SDS011;360;48.764;9.164;2022-09-04T09:21:45;2.90;;;1.57;;
751;SDS011;360;48.764;9.164;2022-09-04T09:27:07;1.60;;;1.37;;
751;SDS011;360;48.764;9.164;2022-09-04T09:29:48;1.87;;;1.10;;
751;SDS011;360;48.764;9.164;2022-09-04T09:50:11;2.00;;;1.10;;
751;SDS011;360;48.764;9.164;2022-09-04T09:53:11;1.50;;;1.40;;
751;SDS011;360;48.764;9.164;2022-09-04T09:56:11;1.90;;;1.50;;
751;SDS011;360;48.764;9.164;2022-09-04T09:59:04;1.40;;;1.10;;
751;SDS011;360;48.764;9.164;2022-09-04T10:04:33;1.60;;;1.30;;
751;SDS011;360;48.764;9.164;2022-09-04T10:07:15;1.27;;;0.97;;
751;SDS011;360;48.764;9.164;2022-09-04T10:12:36;1.30;;;1.20;;
751;SDS011;360;48.764;9.164;2022-09-04T10:15:21;2.17;;;1.40;;
751;SDS011;360;48.764;9.164;2022-09-04T10:18:07;1.93;;;1.30;;
751;SDS011;360;48.764;9.164;2022-09-04T10:20:54;1.37;;;1.27;;
751;SDS011;360;48.764;9.164;2022-09-04T10:29:46;1.80;;;1.67;;
751;SDS011;360;48.764;9.164;2022-09-04T10:32:29;1.50;;;1.30;;
751;SDS011;360;48.764;9.164;2022-09-04T10:35:10;1.97;;;1.63;;
751;SDS011;360;48.764;9.164;2022-09-04T10:37:50;1.83;;;1.03;;
751;SDS011;360;48.764;9.164;2022-09-04T10:40:23;1.23;;;1.13;;
751;SDS011;360;48.764;9.164;2022-09-04T10:43:04;2.07;;;1.80;;
751;SDS011;360;48.764;9.164;2022-09-04T10:45:38;4.00;;;1.93;;
751;SDS011;360;48.764;9.164;2022-09-04T10:48:24;0.90;;;0.80;;
751;SDS011;360;48.764;9.164;2022-09-04T10:51:00;2.13;;;0.97;;
751;SDS011;360;48.764;9.164;2022-09-04T10:53:48;1.70;;;1.27;;
751;SDS011;360;48.764;9.164;2022-09-04T10:56:21;1.57;;;1.47;;
751;SDS011;360;48.764;9.164;2022-09-04T10:59:00;1.37;;;1.10;;
751;SDS011;360;48.764;9.164;2022-09-04T11:07:28;1.33;;;1.07;;
751;SDS011;360;48.764;9.164;2022-09-04T11:12:59;1.33;;;1.07;;
751;SDS011;360;48.764;9.164;2022-09-04T11:15:41;1.73;;;1.30;;
751;SDS011;360;48.764;9.164;2022-09-04T11:18:19;1.63;;;1.10;;
751;SDS011;360;48.764;9.164;2022-09-04T11:21:03;1.03;;;0.93;;
751;SDS011;360;48.764;9.164;2022-09-04T11:23:46;1.53;;;0.90;;
751;SDS011;360;48.764;9.164;2022-09-04T11:26:35;1.20;;;1.10;;
751;SDS011;360;48.764;9.164;2022-09-04T11:32:08;1.37;;;1.03;;
751;SDS011;360;48.764;9.164;2022-09-04T11:43:07;1.20;;;0.97;;
751;SDS011;360;48.764;9.164;2022-09-04T11:45:43;1.40;;;1.13;;
751;SDS011;360;48.764;9.164;2022-09-04T11:51:16;1.57;;;1.27;;
751;SDS011;360;48.764;9.164;2022-09-04T11:53:55;1.30;;;1.20;;
751;SDS011;360;48.764;9.164;2022-09-04T11:56:33;1.00;;;0.90;;
751;SDS011;360;48.764;9.164;2022-09-04T11:59:07;1.00;;;0.90;;
751;SDS011;360;48.764;9.164;2022-09-04T12:01:50;3.03;;;1.37;;
751;SDS011;360;48.764;9.164;2022-09-04T12:04:39;1.40;;;1.20;;
751;SDS011;360;48.764;9.164;2022-09-04T12:07:11;1.13;;;1.03;;
751;SDS011;360;48.764;9.164;2022-09-04T12:09:46;2.90;;;1.37;;
751;SDS011;360;48.764;9.164;2022-09-04T12:12:25;1.00;;;0.90;;
751;SDS011;360;48.764;9.164;2022-09-04T12:15:03;1.20;;;1.10;;
751;SDS011;360;48.764;9.164;2022-09-04T12:17:47;1.20;;;0.93;;
751;SDS011;360;48.764;9.164;2022-09-04T12:20:34;1.40;;;1.13;;
751;SDS011;360;48.764;9.164;2022-09-04T12:23:22;1.20;;;1.10;;
751;SDS011;360;48.764;9.164;2022-09-04T12:26:09;1.30;;;1.10;;
751;SDS011;360;48.764;9.164;2022-09-04T12:31:44;1.30;;;1.00;;
751;SDS011;360;48.764;9.164;2022-09-04T12:34:27;2.30;;;1.50;;
751;SDS011;360;48.764;9.164;2022-09-04T12:37:14;1.20;;;1.00;;
751;SDS011;360;48.764;9.164;2022-09-04T12:42:44;1.27;;;1.17;;
751;SDS011;360;48.764;9.164;2022-09-04T12:45:14;1.93;;;1.40;;
751;SDS011;360;48.764;9.164;2022-09-04T12:47:49;3.27;;;1.77;;
751;SDS011;360;48.764;9.164;2022-09-04T12:50:24;1.10;;;1.00;;
751;SDS011;360;48.764;9.164;2022-09-04T12:52:58;1.20;;;1.10;;
751;SDS011;360;48.764;9.164;2022-09-04T12:55:31;1.80;;;1.23;;
751;SDS011;360;48.764;9.164;2022-09-04T12:58:04;1.50;;;1.40;;
751;SDS011;360;48.764;9.164;2022-09-04T13:00:37;1.50;;;1.40;;
751;SDS011;360;48.764;9.164;2022-09-04T13:03:09;1.67;;;1.57;;
751;SDS011;360;48.764;9.164;2022-09-04T13:05:46;1.30;;;1.20;;
751;SDS011;360;48.764;9.164;2022-09-04T13:08:17;1.80;;;1.47;;
751;SDS011;360;48.764;9.164;2022-09-04T13:10:51;1.67;;;1.57;;
751;SDS011;360;48.764;9.164;2022-09-04T13:13:25;1.67;;;1.00;;
751;SDS011;360;48.764;9.164;2022-09-04T13:15:56;2.37;;;1.17;;
751;SDS011;360;48.764;9.164;2022-09-04T13:18:35;1.33;;;1.20;;
751;SDS011;360;48.764;9.164;2022-09-04T13:21:09;1.33;;;1.20;;
751;SDS011;360;48.764;9.164;2022-09-04T13:23:46;1.07;;;0.93;;
751;SDS011;360;48.764;9.164;2022-09-04T13:26:23;1.50;;;1.20;;
751;SDS011;360;48.764;9.164;2022-09-04T13:28:57;1.10;;;1.00;;
751;SDS011;360;48.764;9.164;2022-09-04T13:31:36;1.20;;;1.10;;
751;SDS011;360;48.764;9.164;2022-09-04T13:34:11;1.20;;;1.10;;
751;SDS011;360;48.764;9.164;2022-09-04T13:36:42;1.03;;;0.90;;
751;SDS011;360;48.764;9.164;2022-09-04T13:45:00;2.23;;;1.80;;
751;SDS011;360;48.764;9.164;2022-09-04T13:47:33;1.27;;;1.17;;
751;SDS011;360;48.764;9.164;2022-09-04T13:50:03;1.73;;;1.27;;
751;SDS011;360;48.764;9.164;2022-09-04T13:52:35;1.17;;;1.07;;
751;SDS011;360;48.764;9.164;2022-09-04T13:55:05;2.43;;;1.30;;
751;SDS011;360;48.764;9.164;2022-09-04T13:57:34;1.50;;;1.40;;
751;SDS011;360;48.764;9.164;2022-09-04T14:00:04;1.73;;;1.33;;
751;SDS011;360;48.764;9.164;2022-09-04T14:02:33;2.90;;;1.27;;
751;SDS011;360;48.764;9.164;2022-09-04T14:05:05;1.27;;;1.17;;
751;SDS011;360;48.764;9.164;2022-09-04T14:07:36;1.30;;;1.00;;
751;SDS011;360;48.764;9.164;2022-09-04T14:10:04;1.27;;;1.17;;
751;SDS011;360;48.764;9.164;2022-09-04T14:12:38;1.20;;;1.10;;
751;SDS011;360;48.764;9.164;2022-09-04T14:15:19;1.57;;;1.33;;
751;SDS011;360;48.764;9.164;2022-09-04T14:17:51;1.30;;;1.13;;
751;SDS011;360;48.764;9.164;2022-09-04T14:20:23;1.20;;;1.10;;
751;SDS011;360;48.764;9.164;2022-09-04T14:22:56;1.53;;;1.20;;
751;SDS011;360;48.764;9.164;2022-09-04T14:25:25;1.50;;;1.40;;
751;SDS011;360;48.764;9.164;2022-09-04T14:27:57;1.60;;;1.40;;
751;SDS011;360;48.764;9.164;2022-09-04T14:30:27;2.97;;;1.53;;
751;SDS011;360;48.764;9.164;2022-09-04T14:33:03;1.80;;;1.40;;
751;SDS011;360;48.764;9.164;2022-09-04T14:35:37;1.70;;;1.60;;
751;SDS011;360;48.764;9.164;2022-09-04T14:38:20;1.40;;;1.30;;
751;SDS011;360;48.764;9.164;2022-09-04T14:40:53;1.30;;;1.20;;
751;SDS011;360;48.764;9.164;2022-09-04T14:43:26;1.13;;;1.00;;
751;SDS011;360;48.764;9.164;2022-09-04T14:46:04;1.60;;;1.30;;
751;SDS011;360;48.764;9.164;2022-09-04T14:48:35;2.17;;;1.30;;
751;SDS011;360;48.764;9.164;2022-09-04T14:51:11;2.17;;;1.20;;
751;SDS011;360;48.764;9.164;2022-09-04T14:53:39;3.30;;;1.40;;
751;SDS011;360;48.764;9.164;2022-09-04T14:56:18;1.63;;;1.52;;
751;SDS011;360;48.764;9.164;2022-09-04T14:58:47;2.10;;;1.50;;
751;SDS011;360;48.764;9.164;2022-09-04T15:01:20;1.50;;;1.40;;
751;SDS011;360;48.764;9.164;2022-09-04T15:03:51;1.58;;;1.48;;
751;SDS011;360;48.764;9.164;2022-09-04T15:06:23;1.33;;;1.23;;
751;SDS011;360;48.764;9.164;2022-09-04T15:08:55;1.77;;;1.58;;
751;SDS011;360;48.764;9.164;2022-09-04T15:11:26;1.98;;;1.15;;
751;SDS011;360;48.764;9.164;2022-09-04T15:13:57;1.30;;;1.20;;
751;SDS011;360;48.764;9.164;2022-09-04T15:16:39;1.33;;;1.10;;
751;SDS011;360;48.764;9.164;2022-09-04T15:19:16;2.78;;;1.60;;
751;SDS011;360;48.764;9.164;2022-09-04T15:21:55;1.60;;;1.50;;
751;SDS011;360;48.764;9.164;2022-09-04T15:24:25;2.20;;;1.67;;
751;SDS011;360;48.764;9.164;2022-09-04T15:27:01;1.77;;;1.67;;
751;SDS011;360;48.764;9.164;2022-09-04T15:29:37;1.50;;;1.40;;
751;SDS011;360;48.764;9.164;2022-09-04T15:32:12;1.70;;;1.50;;
751;SDS011;360;48.764;9.164;2022-09-04T15:34:46;1.30;;;1.20;;
751;SDS011;360;48.764;9.164;2022-09-04T15:37:18;1.70;;;1.30;;
751;SDS011;360;48.764;9.164;2022-09-04T15:39:53;1.30;;;1.20;;
751;SDS011;360;48.764;9.164;2022-09-04T15:42:32;2.88;;;2.67;;
751;SDS011;360;48.764;9.164;2022-09-04T15:45:04;3.72;;;3.42;;
751;SDS011;360;48.764;9.164;2022-09-04T15:47:52;1.73;;;1.63;;
751;SDS011;360;48.764;9.164;2022-09-04T15:50:29;1.58;;;1.48;;
751;SDS011;360;48.764;9.164;2022-09-04T15:53:08;1.20;;;1.10;;
751;SDS011;360;48.764;9.164;2022-09-04T15:55:45;1.30;;;1.15;;
751;SDS011;360;48.764;9.164;2022-09-04T15:58:17;1.38;;;1.27;;
751;SDS011;360;48.764;9.164;2022-09-04T16:01:04;1.50;;;1.40;;
751;SDS011;360;48.764;9.164;2022-09-04T16:03:41;1.40;;;1.30;;
751;SDS011;360;48.764;9.164;2022-09-04T16:06:16;1.10;;;1.00;;
751;SDS011;360;48.764;9.164;2022-09-04T16:08:48;1.63;;;1.52;;
751;SDS011;360;48.764;9.164;2022-09-04T16:11:20;1.90;;;1.10;;
751;SDS011;360;48.764;9.164;2022-09-04T16:13:52;1.42;;;1.33;;
751;SDS011;360;48.764;9.164;2022-09-04T16:16:22;1.20;;;1.08;;
751;SDS011;360;48.764;9.164;2022-09-04T16:19:03;1.77;;;1.60;;
751;SDS011;360;48.764;9.164;2022-09-04T16:21:37;1.20;;;1.10;;
751;SDS011;360;48.764;9.164;2022-09-04T16:24:07;1.73;;;1.20;;
751;SDS011;360;48.764;9.164;2022-09-04T16:26:39;1.48;;;1.38;;
751;SDS011;360;48.764;9.164;2022-09-04T16:29:06;2.03;;;1.83;;
751;SDS011;360;48.764;9.164;2022-09-04T16:31:49;2.40;;;1.60;;
751;SDS011;360;48.764;9.164;2022-09-04T16:34:20;1.27;;;1.17;;
751;SDS011;360;48.764;9.164;2022-09-04T16:36:53;1.85;;;1.60;;
751;SDS011;360;48.764;9.164;2022-09-04T16:39:37;1.45;;;1.35;;
751;SDS011;360;48.764;9.164;2022-09-04T16:42:30;1.88;;;1.20;;
751;SDS011;360;48.764;9.164;2022-09-04T16:45:06;1.30;;;1.20;;
751;SDS011;360;48.764;9.164;2022-09-04T16:47:40;1.38;;;1.27;;
751;SDS011;360;48.764;9.164;2022-09-04T16:50:14;1.50;;;1.40;;
751;SDS011;360;48.764;9.164;2022-09-04T16:53:05;1.90;;;1.60;;
751;SDS011;360;48.764;9.164;2022-09-04T16:55:48;1.80;;;1.70;;
751;SDS011;360;48.764;9.164;2022-09-04T16:58:30;2.10;;;1.65;;
751;SDS011;360;48.764;9.164;2022-09-04T17:01:14;2.38;;;2.15;;
751;SDS011;360;48.764;9.164;2022-09-04T17:04:02;2.28;;;2.08;;
751;SDS011;360;48.764;9.164;2022-09-04T17:06:52;2.00;;;1.80;;
751;SDS011;360;48.764;9.164;2022-09-04T17:09:29;2.45;;;2.03;;
751;SDS011;360;48.764;9.164;2022-09-04T17:48:36;2.60;;;2.40;;
751;SDS011;360;48.764;9.164;2022-09-04T17:51:05;6.13;;;2.87;;
751;SDS011;360;48.764;9.164;2022-09-04T17:53:33;1.73;;;1.63;;
751;SDS011;360;48.764;9.164;2022-09-04T17:56:03;3.63;;;1.77;;
751;SDS011;360;48.764;9.164;2022-09-04T18:01:27;3.17;;;1.70;;
751;SDS011;360;48.764;9.164;2022-09-04T18:04:05;2.10;;;1.90;;
751;SDS011;360;48.764;9.164;2022-09-04T18:06:35;2.60;;;1.87;;
751;SDS011;360;48.764;9.164;2022-09-04T18:09:02;1.70;;;1.60;;
751;SDS011;360;48.764;9.164;2022-09-04T18:11:35;1.97;;;1.77;;
751;SDS011;360;48.764;9.164;2022-09-04T18:14:06;2.50;;;1.57;;
751;SDS011;360;48.764;9.164;2022-09-04T18:19:35;2.20;;;2.00;;
751;SDS011;360;48.764;9.164;2022-09-04T18:22:04;2.60;;;1.83;;
751;SDS011;360;48.764;9.164;2022-09-04T18:24:34;2.00;;;1.53;;
751;SDS011;360;48.764;9.164;2022-09-04T18:27:05;2.53;;;1.90;;
751;SDS011;360;48.764;9.164;2022-09-04T18:29:37;4.67;;;2.10;;
751;SDS011;360;48.764;9.164;2022-09-04T18:32:07;2.40;;;1.60;;
751;SDS011;360;48.764;9.164;2022-09-04T18:34:38;2.93;;;1.97;;
751;SDS011;360;48.764;9.164;2022-09-04T18:37:08;2.97;;;1.80;;
751;SDS011;360;48.764;9.164;2022-09-04T18:39:39;7.20;;;4.33;;
751;SDS011;360;48.764;9.164;2022-09-04T18:42:08;3.63;;;1.63;;
751;SDS011;360;48.764;9.164;2022-09-04T18:44:38;2.23;;;1.87;;
751;SDS011;360;48.764;9.164;2022-09-04T18:47:15;2.60;;;2.23;;
751;SDS011;360;48.764;9.164;2022-09-04T18:52:35;2.83;;;1.87;;